Ackermanville, Pennsylvania
Current Conditions -  °F | °C
As of 5:51 AM on Thursday 27 Nov 2014 (Local Time) from KABE Reporting Station
Light Snow Light Snow  
Wind Chill: 33°   Ceiling: 3000
Heat Index: 33°   Visibility: 3mi
Dew Point: 29°   Wind: 3mph
Humidity: 85%   Direction: 320°NW
Pressure: 29.94"   Gusts: NA
Location:  40.84°N, 75.22°W
Report Text: KABE 271051Z 32003KT 3SM -SN BR OVC030 01/M02 A2994 RMK AO2 SLP143 P0001 T00061017 $
Loading
Personal Weather Stations






























Interactive Weather Map New forecast layout! Learn more

10-Day Weather Forecast

Advertisements
Track Severe Weather on mobile